sensor_id;sensor_type;location;lat;lon;timestamp;pressure;altitude;pressure_sealevel;temperature
70819;BMP280;58439;51.046;13.692;2023-06-14T00:01:34;100032.84;;;14.29
70819;BMP280;58439;51.046;13.692;2023-06-14T00:04:27;100031.25;;;14.28
70819;BMP280;58439;51.046;13.692;2023-06-14T00:07:11;100028.41;;;14.30
70819;BMP280;58439;51.046;13.692;2023-06-14T00:10:20;100021.97;;;14.26
70819;BMP280;58439;51.046;13.692;2023-06-14T00:12:58;100029.06;;;14.25
70819;BMP280;58439;51.046;13.692;2023-06-14T00:15:40;100017.38;;;14.21
70819;BMP280;58439;51.046;13.692;2023-06-14T00:18:39;100022.91;;;14.13
70819;BMP280;58439;51.046;13.692;2023-06-14T00:21:32;100018.19;;;14.03
70819;BMP280;58439;51.046;13.692;2023-06-14T00:24:08;100019.81;;;13.98
70819;BMP280;58439;51.046;13.692;2023-06-14T00:27:19;100016.63;;;13.96
70819;BMP280;58439;51.046;13.692;2023-06-14T00:30:09;100015.19;;;13.93
70819;BMP280;58439;51.046;13.692;2023-06-14T00:35:55;100022.38;;;13.79
70819;BMP280;58439;51.046;13.692;2023-06-14T00:38:23;100014.34;;;13.74
70819;BMP280;58439;51.046;13.692;2023-06-14T00:41:07;100018.78;;;13.74
70819;BMP280;58439;51.046;13.692;2023-06-14T00:43:39;100012.59;;;13.68
70819;BMP280;58439;51.046;13.692;2023-06-14T00:46:12;100019.50;;;13.63
70819;BMP280;58439;51.046;13.692;2023-06-14T00:49:08;100024.59;;;13.57
70819;BMP280;58439;51.046;13.692;2023-06-14T00:51:36;100020.19;;;13.51
70819;BMP280;58439;51.046;13.692;2023-06-14T00:54:04;100031.31;;;13.47
70819;BMP280;58439;51.046;13.692;2023-06-14T00:56:31;100025.91;;;13.42
70819;BMP280;58439;51.046;13.692;2023-06-14T00:58:59;100022.09;;;13.38
70819;BMP280;58439;51.046;13.692;2023-06-14T01:01:28;100020.69;;;13.35
70819;BMP280;58439;51.046;13.692;2023-06-14T01:04:23;100014.81;;;13.40
70819;BMP280;58439;51.046;13.692;2023-06-14T01:07:33;100021.09;;;13.39
70819;BMP280;58439;51.046;13.692;2023-06-14T01:10:53;100024.56;;;13.33
70819;BMP280;58439;51.046;13.692;2023-06-14T01:13:43;100016.94;;;13.24
70819;BMP280;58439;51.046;13.692;2023-06-14T01:16:31;100013.31;;;13.19
70819;BMP280;58439;51.046;13.692;2023-06-14T01:19:20;100024.03;;;13.17
70819;BMP280;58439;51.046;13.692;2023-06-14T01:22:03;100017.38;;;13.15
70819;BMP280;58439;51.046;13.692;2023-06-14T01:24:56;100014.75;;;13.08
70819;BMP280;58439;51.046;13.692;2023-06-14T01:28:04;100006.88;;;13.08
70819;BMP280;58439;51.046;13.692;2023-06-14T01:31:07;100013.81;;;13.02
70819;BMP280;58439;51.046;13.692;2023-06-14T01:33:45;100007.94;;;13.00
70819;BMP280;58439;51.046;13.692;2023-06-14T01:36:27;100009.38;;;12.96
70819;BMP280;58439;51.046;13.692;2023-06-14T01:39:05;100006.81;;;12.90
70819;BMP280;58439;51.046;13.692;2023-06-14T01:41:34;100008.00;;;12.87
70819;BMP280;58439;51.046;13.692;2023-06-14T01:44:32;100005.38;;;12.87
70819;BMP280;58439;51.046;13.692;2023-06-14T01:47:15;99997.69;;;12.92
70819;BMP280;58439;51.046;13.692;2023-06-14T01:49:53;99996.06;;;12.98
70819;BMP280;58439;51.046;13.692;2023-06-14T01:52:55;100000.50;;;12.97
70819;BMP280;58439;51.046;13.692;2023-06-14T01:55:37;99998.06;;;12.96
70819;BMP280;58439;51.046;13.692;2023-06-14T01:58:23;100009.06;;;12.86
70819;BMP280;58439;51.046;13.692;2023-06-14T02:01:06;100009.44;;;12.83
70819;BMP280;58439;51.046;13.692;2023-06-14T02:04:08;100002.38;;;12.84
70819;BMP280;58439;51.046;13.692;2023-06-14T02:06:56;100000.56;;;12.84
70819;BMP280;58439;51.046;13.692;2023-06-14T02:09:40;100009.69;;;12.75
70819;BMP280;58439;51.046;13.692;2023-06-14T02:12:24;100005.47;;;12.67
70819;BMP280;58439;51.046;13.692;2023-06-14T02:14:58;100006.88;;;12.70
70819;BMP280;58439;51.046;13.692;2023-06-14T02:17:44;100020.19;;;12.68
70819;BMP280;58439;51.046;13.692;2023-06-14T02:20:12;100014.38;;;12.66
70819;BMP280;58439;51.046;13.692;2023-06-14T02:23:08;100012.53;;;12.60
70819;BMP280;58439;51.046;13.692;2023-06-14T02:26:24;100016.00;;;12.54
70819;BMP280;58439;51.046;13.692;2023-06-14T02:29:20;100019.84;;;12.52
70819;BMP280;58439;51.046;13.692;2023-06-14T02:31:48;100021.69;;;12.51
70819;BMP280;58439;51.046;13.692;2023-06-14T02:34:16;100019.66;;;12.47
70819;BMP280;58439;51.046;13.692;2023-06-14T02:36:46;100019.06;;;12.51
70819;BMP280;58439;51.046;13.692;2023-06-14T02:39:23;100024.69;;;12.55
70819;BMP280;58439;51.046;13.692;2023-06-14T02:42:04;100027.13;;;12.50
70819;BMP280;58439;51.046;13.692;2023-06-14T02:44:36;100023.88;;;12.48
70819;BMP280;58439;51.046;13.692;2023-06-14T02:47:38;100033.41;;;12.42
70819;BMP280;58439;51.046;13.692;2023-06-14T02:50:06;100027.94;;;12.37
70819;BMP280;58439;51.046;13.692;2023-06-14T02:52:34;100024.09;;;12.39
70819;BMP280;58439;51.046;13.692;2023-06-14T02:55:03;100030.41;;;12.38
70819;BMP280;58439;51.046;13.692;2023-06-14T02:57:30;100033.59;;;12.40
70819;BMP280;58439;51.046;13.692;2023-06-14T02:59:58;100029.59;;;12.38
70819;BMP280;58439;51.046;13.692;2023-06-14T03:02:25;100026.72;;;12.33
70819;BMP280;58439;51.046;13.692;2023-06-14T03:04:52;100030.38;;;12.32
70819;BMP280;58439;51.046;13.692;2023-06-14T03:07:20;100029.19;;;12.28
70819;BMP280;58439;51.046;13.692;2023-06-14T03:09:51;100028.59;;;12.26
70819;BMP280;58439;51.046;13.692;2023-06-14T03:12:20;100024.34;;;12.25
70819;BMP280;58439;51.046;13.692;2023-06-14T03:14:50;100026.16;;;12.24
70819;BMP280;58439;51.046;13.692;2023-06-14T03:17:21;100032.81;;;12.20
70819;BMP280;58439;51.046;13.692;2023-06-14T03:19:49;100026.13;;;12.17
70819;BMP280;58439;51.046;13.692;2023-06-14T03:22:16;100031.63;;;12.16
70819;BMP280;58439;51.046;13.692;2023-06-14T03:24:44;100034.84;;;12.18
70819;BMP280;58439;51.046;13.692;2023-06-14T03:27:14;100038.84;;;12.21
70819;BMP280;58439;51.046;13.692;2023-06-14T03:29:44;100039.06;;;12.26
70819;BMP280;58439;51.046;13.692;2023-06-14T03:32:11;100044.72;;;12.29
70819;BMP280;58439;51.046;13.692;2023-06-14T03:34:43;100045.72;;;12.35
70819;BMP280;58439;51.046;13.692;2023-06-14T03:37:19;100047.97;;;12.38
70819;BMP280;58439;51.046;13.692;2023-06-14T03:39:47;100045.72;;;12.35
70819;BMP280;58439;51.046;13.692;2023-06-14T03:42:25;100049.16;;;12.29
70819;BMP280;58439;51.046;13.692;2023-06-14T03:44:53;100054.81;;;12.26
70819;BMP280;58439;51.046;13.692;2023-06-14T03:47:22;100063.28;;;12.28
70819;BMP280;58439;51.046;13.692;2023-06-14T03:49:50;100066.09;;;12.26
70819;BMP280;58439;51.046;13.692;2023-06-14T03:52:17;100067.50;;;12.29
70819;BMP280;58439;51.046;13.692;2023-06-14T03:54:47;100065.88;;;12.41
70819;BMP280;58439;51.046;13.692;2023-06-14T03:57:19;100070.72;;;12.44
70819;BMP280;58439;51.046;13.692;2023-06-14T03:59:49;100074.75;;;12.47
70819;BMP280;58439;51.046;13.692;2023-06-14T04:02:16;100076.78;;;12.51
70819;BMP280;58439;51.046;13.692;2023-06-14T04:04:45;100086.84;;;12.54
70819;BMP280;58439;51.046;13.692;2023-06-14T04:07:20;100087.84;;;12.60
70819;BMP280;58439;51.046;13.692;2023-06-14T04:09:48;100090.25;;;12.68
70819;BMP280;58439;51.046;13.692;2023-06-14T04:12:15;100085.22;;;12.73
70819;BMP280;58439;51.046;13.692;2023-06-14T04:14:43;100098.72;;;12.77
70819;BMP280;58439;51.046;13.692;2023-06-14T04:17:11;100099.34;;;12.79
70819;BMP280;58439;51.046;13.692;2023-06-14T04:19:42;100097.09;;;12.82
70819;BMP280;58439;51.046;13.692;2023-06-14T04:22:09;100104.97;;;12.82
70819;BMP280;58439;51.046;13.692;2023-06-14T04:24:39;100095.25;;;12.89
70819;BMP280;58439;51.046;13.692;2023-06-14T04:27:06;100097.47;;;12.92
70819;BMP280;58439;51.046;13.692;2023-06-14T04:29:35;100097.66;;;12.97
70819;BMP280;58439;51.046;13.692;2023-06-14T04:32:07;100090.97;;;13.01
70819;BMP280;58439;51.046;13.692;2023-06-14T04:34:38;100090.56;;;13.05
70819;BMP280;58439;51.046;13.692;2023-06-14T04:37:07;100089.31;;;13.07
70819;BMP280;58439;51.046;13.692;2023-06-14T04:39:37;100080.41;;;13.08
70819;BMP280;58439;51.046;13.692;2023-06-14T04:42:05;100089.06;;;13.22
70819;BMP280;58439;51.046;13.692;2023-06-14T04:44:37;100083.94;;;13.34
70819;BMP280;58439;51.046;13.692;2023-06-14T04:47:08;100096.63;;;13.43
70819;BMP280;58439;51.046;13.692;2023-06-14T04:49:35;100101.88;;;13.50
70819;BMP280;58439;51.046;13.692;2023-06-14T04:52:05;100113.53;;;13.60
70819;BMP280;58439;51.046;13.692;2023-06-14T04:54:53;100118.91;;;13.72
70819;BMP280;58439;51.046;13.692;2023-06-14T04:57:31;100123.31;;;13.78
70819;BMP280;58439;51.046;13.692;2023-06-14T04:59:59;100119.91;;;13.78
70819;BMP280;58439;51.046;13.692;2023-06-14T05:02:30;100122.28;;;13.79
70819;BMP280;58439;51.046;13.692;2023-06-14T05:04:58;100114.00;;;13.82
70819;BMP280;58439;51.046;13.692;2023-06-14T05:07:30;100115.34;;;13.92
70819;BMP280;58439;51.046;13.692;2023-06-14T05:09:57;100112.91;;;13.97
70819;BMP280;58439;51.046;13.692;2023-06-14T05:12:34;100122.53;;;14.03
70819;BMP280;58439;51.046;13.692;2023-06-14T05:15:15;100121.66;;;14.15
70819;BMP280;58439;51.046;13.692;2023-06-14T05:17:45;100126.63;;;14.24
70819;BMP280;58439;51.046;13.692;2023-06-14T05:20:15;100127.59;;;14.29
70819;BMP280;58439;51.046;13.692;2023-06-14T05:22:42;100130.84;;;14.31
70819;BMP280;58439;51.046;13.692;2023-06-14T05:25:09;100135.81;;;14.39
70819;BMP280;58439;51.046;13.692;2023-06-14T05:27:36;100130.19;;;14.54
70819;BMP280;58439;51.046;13.692;2023-06-14T05:30:05;100133.44;;;14.56
70819;BMP280;58439;51.046;13.692;2023-06-14T05:32:32;100131.34;;;14.58
70819;BMP280;58439;51.046;13.692;2023-06-14T05:34:59;100129.41;;;14.72
70819;BMP280;58439;51.046;13.692;2023-06-14T05:37:29;100126.06;;;14.83
70819;BMP280;58439;51.046;13.692;2023-06-14T05:39:57;100132.50;;;14.87
70819;BMP280;58439;51.046;13.692;2023-06-14T05:42:24;100129.06;;;14.87
70819;BMP280;58439;51.046;13.692;2023-06-14T05:45:17;100128.03;;;14.69
70819;BMP280;58439;51.046;13.692;2023-06-14T05:47:44;100132.63;;;14.56
70819;BMP280;58439;51.046;13.692;2023-06-14T05:50:12;100133.66;;;14.30
70819;BMP280;58439;51.046;13.692;2023-06-14T05:52:42;100133.94;;;14.22
70819;BMP280;58439;51.046;13.692;2023-06-14T05:55:10;100142.19;;;14.25
70819;BMP280;58439;51.046;13.692;2023-06-14T05:57:43;100142.75;;;14.34
70819;BMP280;58439;51.046;13.692;2023-06-14T06:00:10;100138.00;;;14.42
70819;BMP280;58439;51.046;13.692;2023-06-14T06:02:44;100134.97;;;14.64
70819;BMP280;58439;51.046;13.692;2023-06-14T06:05:13;100137.59;;;14.82
70819;BMP280;58439;51.046;13.692;2023-06-14T06:07:42;100131.38;;;14.95
70819;BMP280;58439;51.046;13.692;2023-06-14T06:10:11;100137.41;;;15.02
70819;BMP280;58439;51.046;13.692;2023-06-14T06:12:38;100140.22;;;15.19
70819;BMP280;58439;51.046;13.692;2023-06-14T06:15:06;100141.94;;;15.25
70819;BMP280;58439;51.046;13.692;2023-06-14T06:17:39;100145.31;;;15.32
70819;BMP280;58439;51.046;13.692;2023-06-14T06:20:23;100158.31;;;15.45
70819;BMP280;58439;51.046;13.692;2023-06-14T06:22:57;100162.47;;;15.53
70819;BMP280;58439;51.046;13.692;2023-06-14T06:25:26;100167.59;;;15.66
70819;BMP280;58439;51.046;13.692;2023-06-14T06:27:57;100159.38;;;15.86
70819;BMP280;58439;51.046;13.692;2023-06-14T06:30:25;100158.94;;;16.01
70819;BMP280;58439;51.046;13.692;2023-06-14T06:32:53;100165.13;;;16.06
70819;BMP280;58439;51.046;13.692;2023-06-14T06:35:20;100172.97;;;16.13
70819;BMP280;58439;51.046;13.692;2023-06-14T06:37:47;100171.94;;;16.25
70819;BMP280;58439;51.046;13.692;2023-06-14T06:40:14;100172.84;;;16.31
70819;BMP280;58439;51.046;13.692;2023-06-14T06:42:41;100174.69;;;16.31
70819;BMP280;58439;51.046;13.692;2023-06-14T06:45:12;100175.38;;;16.49
70819;BMP280;58439;51.046;13.692;2023-06-14T06:47:39;100178.13;;;16.66
70819;BMP280;58439;51.046;13.692;2023-06-14T06:50:07;100176.13;;;16.85
70819;BMP280;58439;51.046;13.692;2023-06-14T06:52:34;100174.59;;;17.01
70819;BMP280;58439;51.046;13.692;2023-06-14T06:55:02;100173.44;;;17.08
70819;BMP280;58439;51.046;13.692;2023-06-14T06:57:29;100168.66;;;17.22
70819;BMP280;58439;51.046;13.692;2023-06-14T06:59:57;100162.53;;;17.33
70819;BMP280;58439;51.046;13.692;2023-06-14T07:02:24;100165.66;;;17.30
70819;BMP280;58439;51.046;13.692;2023-06-14T07:04:51;100163.69;;;17.26
70819;BMP280;58439;51.046;13.692;2023-06-14T07:07:19;100158.28;;;17.32
70819;BMP280;58439;51.046;13.692;2023-06-14T07:09:46;100164.34;;;17.44
70819;BMP280;58439;51.046;13.692;2023-06-14T07:12:13;100164.75;;;17.53
70819;BMP280;58439;51.046;13.692;2023-06-14T07:14:40;100169.31;;;17.58
70819;BMP280;58439;51.046;13.692;2023-06-14T07:17:07;100173.91;;;17.62
70819;BMP280;58439;51.046;13.692;2023-06-14T07:19:36;100171.75;;;17.76
70819;BMP280;58439;51.046;13.692;2023-06-14T07:22:06;100174.56;;;17.86
70819;BMP280;58439;51.046;13.692;2023-06-14T07:24:33;100173.19;;;18.00
70819;BMP280;58439;51.046;13.692;2023-06-14T07:27:03;100165.25;;;18.17
70819;BMP280;58439;51.046;13.692;2023-06-14T07:29:34;100171.50;;;18.28
70819;BMP280;58439;51.046;13.692;2023-06-14T07:32:02;100167.88;;;18.34
70819;BMP280;58439;51.046;13.692;2023-06-14T07:34:29;100168.25;;;18.43
70819;BMP280;58439;51.046;13.692;2023-06-14T07:36:56;100170.78;;;18.54
70819;BMP280;58439;51.046;13.692;2023-06-14T07:39:23;100174.06;;;18.61
70819;BMP280;58439;51.046;13.692;2023-06-14T07:41:50;100177.56;;;18.67
70819;BMP280;58439;51.046;13.692;2023-06-14T07:44:17;100168.22;;;18.81
70819;BMP280;58439;51.046;13.692;2023-06-14T07:46:45;100172.78;;;18.86
70819;BMP280;58439;51.046;13.692;2023-06-14T07:49:20;100177.16;;;18.97
70819;BMP280;58439;51.046;13.692;2023-06-14T07:51:48;100171.97;;;19.07
70819;BMP280;58439;51.046;13.692;2023-06-14T07:54:15;100180.63;;;19.24
70819;BMP280;58439;51.046;13.692;2023-06-14T07:56:43;100176.78;;;19.37
70819;BMP280;58439;51.046;13.692;2023-06-14T07:59:11;100166.50;;;19.46
70819;BMP280;58439;51.046;13.692;2023-06-14T08:01:41;100173.81;;;19.60
70819;BMP280;58439;51.046;13.692;2023-06-14T08:04:14;100171.47;;;19.69
70819;BMP280;58439;51.046;13.692;2023-06-14T08:06:42;100173.75;;;19.92
70819;BMP280;58439;51.046;13.692;2023-06-14T08:09:28;100176.81;;;20.11
70819;BMP280;58439;51.046;13.692;2023-06-14T08:11:57;100183.13;;;20.05
70819;BMP280;58439;51.046;13.692;2023-06-14T08:14:27;100176.47;;;20.03
70819;BMP280;58439;51.046;13.692;2023-06-14T08:17:37;100176.66;;;20.33
70819;BMP280;58439;51.046;13.692;2023-06-14T08:20:12;100174.41;;;20.62
70819;BMP280;58439;51.046;13.692;2023-06-14T08:22:45;100173.13;;;20.75
70819;BMP280;58439;51.046;13.692;2023-06-14T08:25:31;100176.06;;;20.78
70819;BMP280;58439;51.046;13.692;2023-06-14T08:28:28;100165.50;;;20.94
70819;BMP280;58439;51.046;13.692;2023-06-14T08:31:31;100178.25;;;21.17
70819;BMP280;58439;51.046;13.692;2023-06-14T08:33:59;100178.00;;;21.29
70819;BMP280;58439;51.046;13.692;2023-06-14T08:36:44;100178.53;;;21.36
70819;BMP280;58439;51.046;13.692;2023-06-14T08:39:20;100170.84;;;21.29
70819;BMP280;58439;51.046;13.692;2023-06-14T08:41:49;100164.72;;;21.34
70819;BMP280;58439;51.046;13.692;2023-06-14T08:44:17;100168.69;;;21.16
70819;BMP280;58439;51.046;13.692;2023-06-14T08:46:47;100169.19;;;20.93
70819;BMP280;58439;51.046;13.692;2023-06-14T08:49:17;100173.41;;;20.78
70819;BMP280;58439;51.046;13.692;2023-06-14T08:51:44;100163.84;;;20.93
70819;BMP280;58439;51.046;13.692;2023-06-14T08:54:27;100172.72;;;21.18
70819;BMP280;58439;51.046;13.692;2023-06-14T08:57:11;100164.16;;;21.16
70819;BMP280;58439;51.046;13.692;2023-06-14T08:59:51;100171.88;;;20.98
70819;BMP280;58439;51.046;13.692;2023-06-14T09:02:23;100168.91;;;20.89
70819;BMP280;58439;51.046;13.692;2023-06-14T09:04:55;100173.72;;;21.07
70819;BMP280;58439;51.046;13.692;2023-06-14T09:07:32;100168.41;;;21.02
70819;BMP280;58439;51.046;13.692;2023-06-14T09:10:09;100177.19;;;21.08
70819;BMP280;58439;51.046;13.692;2023-06-14T09:12:40;100182.03;;;21.21
70819;BMP280;58439;51.046;13.692;2023-06-14T09:15:08;100181.97;;;21.11
70819;BMP280;58439;51.046;13.692;2023-06-14T09:17:36;100182.28;;;21.09
70819;BMP280;58439;51.046;13.692;2023-06-14T09:21:04;100183.88;;;21.26
70819;BMP280;58439;51.046;13.692;2023-06-14T09:23:46;100183.34;;;21.59
70819;BMP280;58439;51.046;13.692;2023-06-14T09:26:17;100179.63;;;21.55
70819;BMP280;58439;51.046;13.692;2023-06-14T09:28:47;100179.09;;;21.68
70819;BMP280;58439;51.046;13.692;2023-06-14T09:31:17;100170.53;;;21.97
70819;BMP280;58439;51.046;13.692;2023-06-14T09:33:46;100179.53;;;22.21
70819;BMP280;58439;51.046;13.692;2023-06-14T09:36:23;100186.44;;;22.22
70819;BMP280;58439;51.046;13.692;2023-06-14T09:39:00;100179.44;;;22.41
70819;BMP280;58439;51.046;13.692;2023-06-14T09:41:38;100177.69;;;22.76
70819;BMP280;58439;51.046;13.692;2023-06-14T09:44:08;100175.81;;;23.15
70819;BMP280;58439;51.046;13.692;2023-06-14T09:46:44;100177.97;;;23.47
70819;BMP280;58439;51.046;13.692;2023-06-14T09:49:11;100178.53;;;23.97
70819;BMP280;58439;51.046;13.692;2023-06-14T09:51:50;100176.16;;;24.38
70819;BMP280;58439;51.046;13.692;2023-06-14T09:54:22;100176.66;;;23.93
70819;BMP280;58439;51.046;13.692;2023-06-14T09:56:51;100173.38;;;23.77
70819;BMP280;58439;51.046;13.692;2023-06-14T09:59:22;100161.00;;;23.62
70819;BMP280;58439;51.046;13.692;2023-06-14T10:01:58;100166.50;;;23.08
70819;BMP280;58439;51.046;13.692;2023-06-14T10:04:29;100162.16;;;22.83
70819;BMP280;58439;51.046;13.692;2023-06-14T10:06:58;100152.47;;;22.92
70819;BMP280;58439;51.046;13.692;2023-06-14T10:09:29;100157.13;;;23.15
70819;BMP280;58439;51.046;13.692;2023-06-14T10:12:00;100163.81;;;23.47
70819;BMP280;58439;51.046;13.692;2023-06-14T10:14:28;100155.41;;;23.59
70819;BMP280;58439;51.046;13.692;2023-06-14T10:17:10;100172.38;;;23.44
70819;BMP280;58439;51.046;13.692;2023-06-14T10:19:48;100170.25;;;23.41
70819;BMP280;58439;51.046;13.692;2023-06-14T10:22:44;100161.59;;;23.54
70819;BMP280;58439;51.046;13.692;2023-06-14T10:25:31;100165.56;;;23.28
70819;BMP280;58439;51.046;13.692;2023-06-14T10:28:19;100163.72;;;23.23
70819;BMP280;58439;51.046;13.692;2023-06-14T10:31:11;100166.31;;;22.99
70819;BMP280;58439;51.046;13.692;2023-06-14T10:33:50;100171.38;;;22.57
70819;BMP280;58439;51.046;13.692;2023-06-14T10:36:30;100165.53;;;22.94
70819;BMP280;58439;51.046;13.692;2023-06-14T10:41:38;100169.34;;;24.03
70819;BMP280;58439;51.046;13.692;2023-06-14T10:46:52;100169.06;;;24.29
70819;BMP280;58439;51.046;13.692;2023-06-14T10:49:19;100162.31;;;24.31
70819;BMP280;58439;51.046;13.692;2023-06-14T10:51:51;100162.22;;;23.99
70819;BMP280;58439;51.046;13.692;2023-06-14T10:54:22;100163.25;;;23.74
70819;BMP280;58439;51.046;13.692;2023-06-14T10:56:53;100160.44;;;23.60
70819;BMP280;58439;51.046;13.692;2023-06-14T10:59:21;100160.59;;;23.45
70819;BMP280;58439;51.046;13.692;2023-06-14T11:02:27;100159.84;;;23.10
70819;BMP280;58439;51.046;13.692;2023-06-14T11:05:08;100158.28;;;23.04
70819;BMP280;58439;51.046;13.692;2023-06-14T11:08:17;100159.56;;;23.41
70819;BMP280;58439;51.046;13.692;2023-06-14T11:10:47;100148.56;;;24.19
70819;BMP280;58439;51.046;13.692;2023-06-14T11:13:16;100152.13;;;23.91
70819;BMP280;58439;51.046;13.692;2023-06-14T11:15:45;100144.50;;;23.55
70819;BMP280;58439;51.046;13.692;2023-06-14T11:18:14;100144.81;;;23.20
70819;BMP280;58439;51.046;13.692;2023-06-14T11:20:46;100137.72;;;23.05
70819;BMP280;58439;51.046;13.692;2023-06-14T11:23:14;100144.88;;;22.75
70819;BMP280;58439;51.046;13.692;2023-06-14T11:25:42;100151.13;;;22.56
70819;BMP280;58439;51.046;13.692;2023-06-14T11:28:09;100148.69;;;22.59
70819;BMP280;58439;51.046;13.692;2023-06-14T11:30:36;100142.00;;;22.62
70819;BMP280;58439;51.046;13.692;2023-06-14T11:33:03;100148.91;;;22.68
70819;BMP280;58439;51.046;13.692;2023-06-14T11:35:30;100143.97;;;22.85
70819;BMP280;58439;51.046;13.692;2023-06-14T11:38:02;100145.81;;;23.29
70819;BMP280;58439;51.046;13.692;2023-06-14T11:40:29;100147.88;;;23.90
70819;BMP280;58439;51.046;13.692;2023-06-14T11:43:01;100150.47;;;24.75
70819;BMP280;58439;51.046;13.692;2023-06-14T11:45:29;100145.94;;;24.75
70819;BMP280;58439;51.046;13.692;2023-06-14T11:48:07;100151.31;;;24.14
70819;BMP280;58439;51.046;13.692;2023-06-14T11:50:49;100150.97;;;23.15
70819;BMP280;58439;51.046;13.692;2023-06-14T11:53:22;100151.25;;;22.74
70819;BMP280;58439;51.046;13.692;2023-06-14T11:55:50;100150.88;;;22.42
70819;BMP280;58439;51.046;13.692;2023-06-14T11:58:35;100147.97;;;22.43
70819;BMP280;58439;51.046;13.692;2023-06-14T12:01:05;100151.94;;;22.51
70819;BMP280;58439;51.046;13.692;2023-06-14T12:03:33;100145.78;;;22.56
70819;BMP280;58439;51.046;13.692;2023-06-14T12:06:08;100143.59;;;22.63
70819;BMP280;58439;51.046;13.692;2023-06-14T12:08:38;100145.03;;;22.89
70819;BMP280;58439;51.046;13.692;2023-06-14T12:11:13;100140.13;;;23.01
70819;BMP280;58439;51.046;13.692;2023-06-14T12:13:42;100147.13;;;22.92
70819;BMP280;58439;51.046;13.692;2023-06-14T12:16:12;100148.16;;;23.01
70819;BMP280;58439;51.046;13.692;2023-06-14T12:19:07;100147.91;;;23.32
70819;BMP280;58439;51.046;13.692;2023-06-14T12:21:36;100151.81;;;23.73
70819;BMP280;58439;51.046;13.692;2023-06-14T12:24:06;100143.59;;;24.31
70819;BMP280;58439;51.046;13.692;2023-06-14T12:26:51;100149.69;;;25.07
70819;BMP280;58439;51.046;13.692;2023-06-14T12:29:20;100152.56;;;25.98
70819;BMP280;58439;51.046;13.692;2023-06-14T12:31:49;100142.66;;;26.20
70819;BMP280;58439;51.046;13.692;2023-06-14T12:34:28;100148.06;;;26.07
70819;BMP280;58439;51.046;13.692;2023-06-14T12:37:11;100140.97;;;25.47
70819;BMP280;58439;51.046;13.692;2023-06-14T12:40:23;100143.03;;;24.53
70819;BMP280;58439;51.046;13.692;2023-06-14T12:46:45;100138.59;;;25.60
70819;BMP280;58439;51.046;13.692;2023-06-14T12:49:14;100140.00;;;27.01
70819;BMP280;58439;51.046;13.692;2023-06-14T12:51:41;100138.88;;;28.50
70819;BMP280;58439;51.046;13.692;2023-06-14T12:54:08;100144.19;;;28.85
70819;BMP280;58439;51.046;13.692;2023-06-14T12:56:36;100143.91;;;28.78
70819;BMP280;58439;51.046;13.692;2023-06-14T12:59:03;100141.91;;;29.71
70819;BMP280;58439;51.046;13.692;2023-06-14T13:01:30;100137.38;;;30.95
70819;BMP280;58439;51.046;13.692;2023-06-14T13:03:57;100142.28;;;31.94
70819;BMP280;58439;51.046;13.692;2023-06-14T13:06:25;100132.50;;;32.49
70819;BMP280;58439;51.046;13.692;2023-06-14T13:08:52;100127.38;;;32.44
70819;BMP280;58439;51.046;13.692;2023-06-14T13:11:21;100119.63;;;31.58
70819;BMP280;58439;51.046;13.692;2023-06-14T13:13:48;100131.00;;;29.30
70819;BMP280;58439;51.046;13.692;2023-06-14T13:16:15;100127.97;;;28.29
70819;BMP280;58439;51.046;13.692;2023-06-14T13:18:42;100128.69;;;27.78
70819;BMP280;58439;51.046;13.692;2023-06-14T13:21:10;100126.00;;;26.90
70819;BMP280;58439;51.046;13.692;2023-06-14T13:23:37;100121.34;;;27.05
70819;BMP280;58439;51.046;13.692;2023-06-14T13:26:04;100118.41;;;28.66
70819;BMP280;58439;51.046;13.692;2023-06-14T13:28:31;100106.47;;;28.85
70819;BMP280;58439;51.046;13.692;2023-06-14T13:30:59;100115.13;;;28.01
70819;BMP280;58439;51.046;13.692;2023-06-14T13:33:27;100111.13;;;26.40
70819;BMP280;58439;51.046;13.692;2023-06-14T13:35:54;100111.03;;;25.13
70819;BMP280;58439;51.046;13.692;2023-06-14T13:38:22;100103.13;;;24.19
70819;BMP280;58439;51.046;13.692;2023-06-14T13:40:49;100110.63;;;23.74
70819;BMP280;58439;51.046;13.692;2023-06-14T13:43:16;100105.78;;;23.52
70819;BMP280;58439;51.046;13.692;2023-06-14T13:45:43;100116.50;;;24.19
70819;BMP280;58439;51.046;13.692;2023-06-14T13:48:10;100115.84;;;26.56
70819;BMP280;58439;51.046;13.692;2023-06-14T13:50:37;100112.59;;;28.47
70819;BMP280;58439;51.046;13.692;2023-06-14T13:53:04;100109.69;;;30.08
70819;BMP280;58439;51.046;13.692;2023-06-14T13:55:33;100113.81;;;30.96
70819;BMP280;58439;51.046;13.692;2023-06-14T13:58:00;100114.94;;;31.31
70819;BMP280;58439;51.046;13.692;2023-06-14T14:00:27;100104.56;;;32.01
70819;BMP280;58439;51.046;13.692;2023-06-14T14:02:54;100111.47;;;32.58
70819;BMP280;58439;51.046;13.692;2023-06-14T14:05:21;100113.47;;;33.46
70819;BMP280;58439;51.046;13.692;2023-06-14T14:07:52;100104.84;;;33.41
70819;BMP280;58439;51.046;13.692;2023-06-14T14:10:20;100105.56;;;32.24
70819;BMP280;58439;51.046;13.692;2023-06-14T14:12:47;100111.31;;;30.21
70819;BMP280;58439;51.046;13.692;2023-06-14T14:15:16;100107.78;;;28.70
70819;BMP280;58439;51.046;13.692;2023-06-14T14:17:43;100095.34;;;27.22
70819;BMP280;58439;51.046;13.692;2023-06-14T14:20:11;100106.78;;;26.30
70819;BMP280;58439;51.046;13.692;2023-06-14T14:22:42;100104.06;;;25.58
70819;BMP280;58439;51.046;13.692;2023-06-14T14:25:10;100107.72;;;25.62
70819;BMP280;58439;51.046;13.692;2023-06-14T14:27:37;100096.84;;;27.46
70819;BMP280;58439;51.046;13.692;2023-06-14T14:30:05;100101.38;;;29.51
70819;BMP280;58439;51.046;13.692;2023-06-14T14:32:33;100104.31;;;30.65
70819;BMP280;58439;51.046;13.692;2023-06-14T14:35:03;100097.34;;;31.77